Schley, Virginia
Current Conditions -  °F | °C
As of 7:55 PM on Tuesday 21 Oct 2014 (Local Time) from KW75 Reporting Station
Overcast Overcast  
Wind Chill: 61°   Ceiling: 6000
Heat Index: 61°   Visibility: 10mi
Dew Point: 57°   Wind: 0mph
Humidity: 86%   Direction: NA
Pressure: 29.82"   Gusts: NA
Location:  37.39°N, 76.46°W
Report Text: KW75 212355Z AUTO 00000KT 10SM OVC060 16/14 A2982 RMK AO1 T01600137 10216 20160
Loading
Personal Weather Stations






























Interactive Weather Map
Tropical Storm Tracking
New forecast layout! Learn more

10-Day Weather Forecast

Advertisements
Track Severe Weather on mobile